createdAt,value
2022-11-16T00:00:05.831Z,96746.00
2022-11-16T00:00:11.712Z,96752.00
2022-11-16T00:00:21.712Z,96750.00
2022-11-16T00:00:31.729Z,96748.00
2022-11-16T00:00:41.728Z,96748.00
2022-11-16T00:00:51.748Z,96748.00
2022-11-16T00:01:01.777Z,96748.00
2022-11-16T00:01:11.789Z,96750.00
2022-11-16T00:01:21.767Z,96752.00
2022-11-16T00:01:31.788Z,96748.00
2022-11-16T00:01:41.889Z,96750.00
2022-11-16T00:01:51.985Z,96752.00
2022-11-16T00:02:02.015Z,96750.00
2022-11-16T00:02:12.106Z,96750.00
2022-11-16T00:02:22.103Z,96752.00
2022-11-16T00:02:32.229Z,96750.00
2022-11-16T00:02:42.363Z,96752.00
2022-11-16T00:02:52.364Z,96750.00
2022-11-16T00:03:02.376Z,96752.00
2022-11-16T00:03:12.377Z,96752.00
2022-11-16T00:03:22.394Z,96752.00
2022-11-16T00:03:32.394Z,96750.00
2022-11-16T00:03:42.514Z,96750.00
2022-11-16T00:03:52.542Z,96756.00
2022-11-16T00:04:02.542Z,96756.00
2022-11-16T00:04:12.546Z,96754.00
2022-11-16T00:04:22.812Z,96752.00
2022-11-16T00:04:32.814Z,96752.00
2022-11-16T00:04:42.929Z,96750.00
2022-11-16T00:04:53.187Z,96752.00
2022-11-16T00:05:03.190Z,96754.00
2022-11-16T00:05:13.200Z,96752.00
2022-11-16T00:05:28.100Z,96754.00
2022-11-16T00:05:33.216Z,96752.00
2022-11-16T00:05:43.218Z,96750.00
2022-11-16T00:05:53.233Z,96750.00
2022-11-16T00:06:03.231Z,96750.00
2022-11-16T00:06:13.232Z,96750.00
2022-11-16T00:06:23.366Z,96750.00
2022-11-16T00:06:33.381Z,96748.00
2022-11-16T00:06:43.376Z,96746.00
2022-11-16T00:06:53.444Z,96746.00
2022-11-16T00:07:03.563Z,96748.00
2022-11-16T00:07:13.653Z,96746.00
2022-11-16T00:07:23.726Z,96748.00
2022-11-16T00:07:33.793Z,96752.00
2022-11-16T00:07:43.794Z,96746.00
2022-11-16T00:07:53.798Z,96752.00
2022-11-16T00:08:03.935Z,96752.00
2022-11-16T00:08:13.985Z,96752.00
2022-11-16T00:08:23.990Z,96752.00
2022-11-16T00:08:34.439Z,96752.00
2022-11-16T00:08:44.209Z,96748.00
2022-11-16T00:08:54.221Z,96754.00
2022-11-16T00:09:04.232Z,96756.00
2022-11-16T00:09:14.245Z,96754.00
2022-11-16T00:09:24.268Z,96756.00
2022-11-16T00:09:34.267Z,96756.00
2022-11-16T00:09:44.280Z,96756.00
2022-11-16T00:09:54.284Z,96756.00
2022-11-16T00:10:04.301Z,96756.00
2022-11-16T00:10:14.308Z,96756.00
2022-11-16T00:10:24.307Z,96756.00
2022-11-16T00:10:34.317Z,96758.00
2022-11-16T00:10:44.317Z,96760.00
2022-11-16T00:10:54.328Z,96758.00
2022-11-16T00:11:04.336Z,96760.00
2022-11-16T00:11:14.343Z,96760.00
2022-11-16T00:11:24.351Z,96758.00
2022-11-16T00:11:34.356Z,96762.00
2022-11-16T00:11:44.366Z,96762.00
2022-11-16T00:11:54.366Z,96760.00
2022-11-16T00:12:04.373Z,96760.00
2022-11-16T00:12:14.380Z,96760.00
2022-11-16T00:12:24.383Z,96760.00
2022-11-16T00:12:34.383Z,96764.00
2022-11-16T00:12:44.764Z,96760.00
2022-11-16T00:12:54.766Z,96760.00
2022-11-16T00:13:04.767Z,96764.00
2022-11-16T00:13:14.769Z,96760.00
2022-11-16T00:13:24.784Z,96760.00
2022-11-16T00:13:34.782Z,96760.00
2022-11-16T00:13:44.789Z,96758.00
2022-11-16T00:13:54.796Z,96760.00
2022-11-16T00:14:04.797Z,96760.00
2022-11-16T00:14:14.802Z,96764.00
2022-11-16T00:14:24.812Z,96764.00
2022-11-16T00:14:34.822Z,96764.00
2022-11-16T00:14:44.825Z,96760.00
2022-11-16T00:14:54.828Z,96766.00
2022-11-16T00:15:04.835Z,96762.00
2022-11-16T00:15:14.838Z,96768.00
2022-11-16T00:15:24.848Z,96766.00
2022-11-16T00:15:34.862Z,96768.00
2022-11-16T00:15:44.871Z,96770.00
2022-11-16T00:15:54.878Z,96768.00
2022-11-16T00:16:04.997Z,96768.00
2022-11-16T00:16:15.033Z,96768.00
2022-11-16T00:16:25.013Z,96768.00
2022-11-16T00:16:35.028Z,96770.00
2022-11-16T00:16:45.286Z,96770.00
2022-11-16T00:16:55.291Z,96764.00
2022-11-16T00:17:05.410Z,96768.00
2022-11-16T00:17:15.683Z,96768.00
2022-11-16T00:17:25.683Z,96768.00
2022-11-16T00:17:35.689Z,96768.00
2022-11-16T00:17:45.692Z,96766.00
2022-11-16T00:17:55.701Z,96766.00
2022-11-16T00:18:05.717Z,96764.00
2022-11-16T00:18:15.720Z,96764.00
2022-11-16T00:18:25.731Z,96764.00
2022-11-16T00:18:35.964Z,96764.00
2022-11-16T00:18:45.827Z,96762.00
2022-11-16T00:18:55.829Z,96762.00
2022-11-16T00:19:05.838Z,96758.00
2022-11-16T00:19:15.843Z,96758.00
2022-11-16T00:19:25.862Z,96758.00
2022-11-16T00:19:35.867Z,96754.00
2022-11-16T00:19:45.871Z,96756.00
2022-11-16T00:19:55.884Z,96750.00
2022-11-16T00:20:05.901Z,96750.00
2022-11-16T00:20:15.924Z,96750.00
2022-11-16T00:20:25.930Z,96750.00
2022-11-16T00:20:35.930Z,96748.00
2022-11-16T00:20:45.937Z,96748.00
2022-11-16T00:20:55.949Z,96746.00
2022-11-16T00:21:05.951Z,96746.00
2022-11-16T00:21:15.962Z,96746.00
2022-11-16T00:21:25.983Z,96744.00
2022-11-16T00:21:35.985Z,96748.00
2022-11-16T00:21:45.995Z,96746.00
2022-11-16T00:21:56.012Z,96744.00
2022-11-16T00:22:06.025Z,96746.00
2022-11-16T00:22:16.025Z,96744.00
2022-11-16T00:22:26.051Z,96746.00
2022-11-16T00:22:36.046Z,96746.00
2022-11-16T00:22:46.057Z,96746.00
2022-11-16T00:22:56.070Z,96746.00
2022-11-16T00:23:06.078Z,96746.00
2022-11-16T00:23:16.078Z,96746.00
2022-11-16T00:23:26.198Z,96746.00
2022-11-16T00:23:36.466Z,96746.00
2022-11-16T00:23:46.606Z,96746.00
2022-11-16T00:23:56.593Z,96746.00
2022-11-16T00:24:06.849Z,96744.00
2022-11-16T00:24:16.858Z,96746.00
2022-11-16T00:24:26.884Z,96744.00
2022-11-16T00:24:36.900Z,96742.00
2022-11-16T00:24:46.912Z,96742.00
2022-11-16T00:24:56.925Z,96742.00
2022-11-16T00:25:06.939Z,96742.00
2022-11-16T00:25:16.941Z,96744.00
2022-11-16T00:25:26.953Z,96742.00
2022-11-16T00:25:36.977Z,96740.00
2022-11-16T00:25:46.961Z,96742.00
2022-11-16T00:25:56.961Z,96740.00
2022-11-16T00:26:07.098Z,96740.00
2022-11-16T00:26:17.101Z,96740.00
2022-11-16T00:26:27.123Z,96738.00
2022-11-16T00:26:37.125Z,96738.00
2022-11-16T00:26:47.134Z,96740.00
2022-11-16T00:26:57.399Z,96738.00
2022-11-16T00:27:07.401Z,96736.00
2022-11-16T00:27:17.406Z,96736.00
2022-11-16T00:27:27.406Z,96736.00
2022-11-16T00:27:37.415Z,96734.00
2022-11-16T00:27:47.533Z,96734.00
2022-11-16T00:27:57.534Z,96732.00
2022-11-16T00:28:07.540Z,96732.00
2022-11-16T00:28:17.555Z,96732.00
2022-11-16T00:28:27.561Z,96732.00
2022-11-16T00:28:37.843Z,96732.00
2022-11-16T00:28:47.841Z,96734.00
2022-11-16T00:28:57.838Z,96730.00
2022-11-16T00:29:07.842Z,96732.00
2022-11-16T00:29:17.849Z,96728.00
2022-11-16T00:29:27.853Z,96730.00
2022-11-16T00:29:37.857Z,96730.00
2022-11-16T00:29:47.884Z,96728.00
2022-11-16T00:29:57.887Z,96728.00
2022-11-16T00:30:07.897Z,96728.00
2022-11-16T00:30:17.910Z,96728.00
2022-11-16T00:30:27.927Z,96728.00
2022-11-16T00:30:37.930Z,96732.00
2022-11-16T00:30:47.935Z,96730.00
2022-11-16T00:30:57.954Z,96730.00
2022-11-16T00:31:07.954Z,96730.00
2022-11-16T00:31:17.996Z,96732.00
2022-11-16T00:31:27.978Z,96728.00
2022-11-16T00:31:38.012Z,96732.00
2022-11-16T00:31:48.001Z,96730.00
2022-11-16T00:31:58.019Z,96730.00
2022-11-16T00:32:08.021Z,96734.00
2022-11-16T00:32:18.022Z,96730.00
2022-11-16T00:32:28.020Z,96730.00
2022-11-16T00:32:38.398Z,96732.00
2022-11-16T00:32:48.398Z,96732.00
2022-11-16T00:32:58.514Z,96730.00
2022-11-16T00:33:08.773Z,96730.00
2022-11-16T00:33:18.895Z,96728.00
2022-11-16T00:33:28.913Z,96730.00
2022-11-16T00:33:39.164Z,96728.00
2022-11-16T00:33:49.282Z,96728.00
2022-11-16T00:33:59.282Z,96728.00
2022-11-16T00:34:09.542Z,96728.00
2022-11-16T00:34:19.558Z,96726.00
2022-11-16T00:34:29.564Z,96726.00
2022-11-16T00:34:39.583Z,96726.00
2022-11-16T00:34:49.580Z,96726.00
2022-11-16T00:34:59.592Z,96725.00
2022-11-16T00:35:09.591Z,96725.00
2022-11-16T00:35:19.716Z,96726.00
2022-11-16T00:35:29.716Z,96725.00
2022-11-16T00:35:39.837Z,96726.00
2022-11-16T00:35:49.980Z,96726.00
2022-11-16T00:36:00.024Z,96728.00
2022-11-16T00:36:10.021Z,96728.00
2022-11-16T00:36:20.405Z,96726.00
2022-11-16T00:36:30.416Z,96730.00
2022-11-16T00:36:40.428Z,96728.00
2022-11-16T00:36:50.435Z,96726.00
2022-11-16T00:37:00.445Z,96726.00
2022-11-16T00:37:10.455Z,96725.00
2022-11-16T00:37:20.448Z,96726.00
2022-11-16T00:37:30.456Z,96726.00
2022-11-16T00:37:40.584Z,96726.00
2022-11-16T00:37:50.596Z,96726.00
2022-11-16T00:38:00.845Z,96726.00
2022-11-16T00:38:10.859Z,96728.00
2022-11-16T00:38:20.878Z,96725.00
2022-11-16T00:38:31.342Z,96726.00
2022-11-16T00:38:41.201Z,96726.00
2022-11-16T00:38:51.197Z,96728.00
2022-11-16T00:39:01.207Z,96726.00
2022-11-16T00:39:11.214Z,96726.00
2022-11-16T00:39:21.208Z,96726.00
2022-11-16T00:39:31.266Z,96730.00
2022-11-16T00:39:41.276Z,96728.00
2022-11-16T00:39:51.286Z,96728.00
2022-11-16T00:40:01.290Z,96728.00
2022-11-16T00:40:11.358Z,96726.00
2022-11-16T00:40:21.746Z,96728.00
2022-11-16T00:40:31.755Z,96728.00
2022-11-16T00:40:41.768Z,96728.00
2022-11-16T00:40:51.779Z,96728.00
2022-11-16T00:41:01.793Z,96730.00
2022-11-16T00:41:11.798Z,96730.00
2022-11-16T00:41:21.807Z,96728.00
2022-11-16T00:41:31.818Z,96732.00
2022-11-16T00:41:41.957Z,96732.00
2022-11-16T00:41:51.969Z,96732.00
2022-11-16T00:42:02.220Z,96734.00
2022-11-16T00:42:12.220Z,96734.00
2022-11-16T00:42:22.232Z,96734.00
2022-11-16T00:42:32.247Z,96736.00
2022-11-16T00:42:42.247Z,96738.00
2022-11-16T00:42:52.256Z,96738.00
2022-11-16T00:43:02.274Z,96740.00
2022-11-16T00:43:12.365Z,96742.00
2022-11-16T00:43:22.358Z,96744.00
2022-11-16T00:43:32.364Z,96744.00
2022-11-16T00:43:42.363Z,96746.00
2022-11-16T00:43:52.388Z,96746.00
2022-11-16T00:44:02.378Z,96746.00
2022-11-16T00:44:12.385Z,96750.00
2022-11-16T00:44:22.403Z,96750.00
2022-11-16T00:44:32.392Z,96750.00
2022-11-16T00:44:42.406Z,96752.00
2022-11-16T00:44:52.412Z,96752.00
2022-11-16T00:45:02.422Z,96752.00
2022-11-16T00:45:12.433Z,96754.00
2022-11-16T00:45:22.425Z,96754.00
2022-11-16T00:45:32.430Z,96756.00
2022-11-16T00:45:42.595Z,96758.00
2022-11-16T00:45:52.587Z,96756.00
2022-11-16T00:46:02.847Z,96762.00
2022-11-16T00:46:12.860Z,96764.00
2022-11-16T00:46:22.890Z,96766.00
2022-11-16T00:46:32.881Z,96766.00
2022-11-16T00:46:42.893Z,96768.00
2022-11-16T00:46:52.891Z,96770.00
2022-11-16T00:47:02.903Z,96773.00
2022-11-16T00:47:12.896Z,96775.00
2022-11-16T00:47:23.026Z,96777.00
2022-11-16T00:47:33.036Z,96779.00
2022-11-16T00:47:43.319Z,96777.00
2022-11-16T00:47:59.185Z,96779.00
2022-11-16T00:48:03.366Z,96781.00
2022-11-16T00:48:13.363Z,96781.00
2022-11-16T00:48:23.358Z,96779.00
2022-11-16T00:48:33.702Z,96779.00
2022-11-16T00:48:43.431Z,96781.00
2022-11-16T00:48:53.562Z,96781.00
2022-11-16T00:49:03.583Z,96781.00
2022-11-16T00:49:13.581Z,96781.00
2022-11-16T00:49:23.959Z,96783.00
2022-11-16T00:49:33.957Z,96781.00
2022-11-16T00:49:43.967Z,96781.00
2022-11-16T00:49:53.976Z,96783.00
2022-11-16T00:50:04.003Z,96781.00
2022-11-16T00:50:14.014Z,96781.00
2022-11-16T00:50:24.003Z,96779.00
2022-11-16T00:50:34.019Z,96781.00
2022-11-16T00:50:44.029Z,96779.00
2022-11-16T00:50:54.029Z,96777.00
2022-11-16T00:51:04.407Z,96777.00
2022-11-16T00:51:14.403Z,96775.00
2022-11-16T00:51:24.524Z,96775.00
2022-11-16T00:51:34.777Z,96775.00
2022-11-16T00:51:44.788Z,96775.00
2022-11-16T00:51:54.797Z,96775.00
2022-11-16T00:52:04.807Z,96775.00
2022-11-16T00:52:14.820Z,96773.00
2022-11-16T00:52:24.822Z,96775.00
2022-11-16T00:52:34.821Z,96775.00
2022-11-16T00:52:44.945Z,96777.00
2022-11-16T00:52:54.953Z,96775.00
2022-11-16T00:53:04.964Z,96775.00
2022-11-16T00:53:15.236Z,96777.00
2022-11-16T00:53:25.358Z,96775.00
2022-11-16T00:53:35.355Z,96775.00
2022-11-16T00:53:45.607Z,96777.00
2022-11-16T00:53:55.627Z,96777.00
2022-11-16T00:54:05.626Z,96777.00
2022-11-16T00:54:15.645Z,96777.00
2022-11-16T00:54:25.652Z,96777.00
2022-11-16T00:54:35.655Z,96779.00
2022-11-16T00:54:45.786Z,96779.00
2022-11-16T00:54:55.788Z,96781.00
2022-11-16T00:55:05.909Z,96781.00
2022-11-16T00:55:15.912Z,96781.00
2022-11-16T00:55:26.045Z,96781.00
2022-11-16T00:55:36.054Z,96779.00
2022-11-16T00:55:46.050Z,96779.00
2022-11-16T00:55:56.054Z,96779.00
2022-11-16T00:56:06.191Z,96779.00
2022-11-16T00:56:16.198Z,96779.00
2022-11-16T00:56:26.205Z,96779.00
2022-11-16T00:56:36.212Z,96777.00
2022-11-16T00:56:46.222Z,96777.00
2022-11-16T00:56:56.235Z,96777.00
2022-11-16T00:57:06.494Z,96777.00
2022-11-16T00:57:16.502Z,96777.00
2022-11-16T00:57:26.618Z,96777.00
2022-11-16T00:57:36.878Z,96777.00
2022-11-16T00:57:46.996Z,96775.00
2022-11-16T00:57:56.997Z,96775.00
2022-11-16T00:58:07.258Z,96773.00
2022-11-16T00:58:17.268Z,96775.00
2022-11-16T00:58:27.384Z,96773.00
2022-11-16T00:58:37.655Z,96773.00
2022-11-16T00:58:47.773Z,96773.00
2022-11-16T00:58:57.783Z,96775.00
2022-11-16T00:59:08.047Z,96775.00
2022-11-16T00:59:18.174Z,96777.00
2022-11-16T00:59:28.168Z,96777.00
2022-11-16T00:59:38.431Z,96779.00
2022-11-16T00:59:48.549Z,96781.00
2022-11-16T00:59:58.550Z,96781.00
2022-11-16T01:00:08.811Z,96781.00
2022-11-16T01:00:18.816Z,96781.00
2022-11-16T01:00:28.951Z,96785.00
2022-11-16T01:00:39.209Z,96783.00
2022-11-16T01:00:49.525Z,96785.00
2022-11-16T01:00:59.450Z,96783.00
2022-11-16T01:01:09.789Z,96783.00
2022-11-16T01:01:19.929Z,96783.00
2022-11-16T01:01:29.995Z,96785.00
2022-11-16T01:01:40.148Z,96783.00
2022-11-16T01:01:50.229Z,96783.00
2022-11-16T01:02:00.237Z,96783.00
2022-11-16T01:02:10.245Z,96781.00
2022-11-16T01:02:20.255Z,96781.00
2022-11-16T01:02:30.376Z,96783.00
2022-11-16T01:02:40.376Z,96783.00
2022-11-16T01:02:50.388Z,96781.00
2022-11-16T01:03:00.404Z,96781.00
2022-11-16T01:03:10.406Z,96783.00
2022-11-16T01:03:20.664Z,96783.00
2022-11-16T01:03:30.783Z,96783.00
2022-11-16T01:03:40.785Z,96783.00
2022-11-16T01:03:51.048Z,96783.00
2022-11-16T01:04:01.060Z,96783.00
2022-11-16T01:04:11.066Z,96781.00
2022-11-16T01:04:21.157Z,96783.00
2022-11-16T01:04:31.167Z,96781.00
2022-11-16T01:04:41.167Z,96783.00
2022-11-16T01:04:51.173Z,96781.00
2022-11-16T01:05:01.189Z,96781.00
2022-11-16T01:05:11.226Z,96783.00
2022-11-16T01:05:21.244Z,96781.00
2022-11-16T01:05:31.246Z,96781.00
2022-11-16T01:05:41.256Z,96783.00
2022-11-16T01:05:51.379Z,96783.00
2022-11-16T01:06:01.383Z,96783.00
2022-11-16T01:06:11.390Z,96781.00
2022-11-16T01:06:21.497Z,96783.00
2022-11-16T01:06:31.619Z,96781.00
2022-11-16T01:06:41.627Z,96779.00
2022-11-16T01:06:51.698Z,96779.00
2022-11-16T01:07:01.783Z,96779.00
2022-11-16T01:07:11.919Z,96781.00
2022-11-16T01:07:21.865Z,96781.00
2022-11-16T01:07:32.001Z,96779.00
2022-11-16T01:07:42.008Z,96777.00
2022-11-16T01:07:52.014Z,96777.00
2022-11-16T01:08:02.013Z,96775.00
2022-11-16T01:08:12.157Z,96781.00
2022-11-16T01:08:22.419Z,96777.00
2022-11-16T01:08:33.006Z,96775.00
2022-11-16T01:08:42.642Z,96773.00
2022-11-16T01:08:52.906Z,96775.00
2022-11-16T01:09:02.920Z,96773.00
2022-11-16T01:09:12.907Z,96773.00
2022-11-16T01:09:22.914Z,96773.00
2022-11-16T01:09:32.919Z,96779.00
2022-11-16T01:09:42.922Z,96773.00
2022-11-16T01:09:52.954Z,96773.00
2022-11-16T01:10:02.980Z,96773.00
2022-11-16T01:10:12.985Z,96773.00
2022-11-16T01:10:22.987Z,96772.00
2022-11-16T01:10:33.364Z,96772.00
2022-11-16T01:10:43.371Z,96772.00
2022-11-16T01:10:53.370Z,96770.00
2022-11-16T01:11:03.424Z,96770.00
2022-11-16T01:11:13.450Z,96768.00
2022-11-16T01:11:23.570Z,96766.00
2022-11-16T01:11:33.573Z,96773.00
2022-11-16T01:11:43.589Z,96766.00
2022-11-16T01:11:53.590Z,96766.00
2022-11-16T01:12:03.714Z,96772.00
2022-11-16T01:12:13.997Z,96766.00
2022-11-16T01:12:24.003Z,96766.00
2022-11-16T01:12:34.005Z,96770.00
2022-11-16T01:12:44.383Z,96764.00
2022-11-16T01:12:54.396Z,96770.00
2022-11-16T01:13:04.419Z,96768.00
2022-11-16T01:13:14.535Z,96770.00
2022-11-16T01:13:24.680Z,96762.00
2022-11-16T01:13:34.681Z,96768.00
2022-11-16T01:13:44.699Z,96768.00
2022-11-16T01:13:54.696Z,96768.00
2022-11-16T01:14:04.825Z,96768.00
2022-11-16T01:14:14.834Z,96768.00
2022-11-16T01:14:24.849Z,96768.00
2022-11-16T01:14:34.864Z,96766.00
2022-11-16T01:14:44.868Z,96768.00
2022-11-16T01:14:54.876Z,96768.00
2022-11-16T01:15:05.148Z,96766.00
2022-11-16T01:15:15.149Z,96770.00
2022-11-16T01:15:25.269Z,96770.00
2022-11-16T01:15:35.528Z,96766.00
2022-11-16T01:15:45.648Z,96768.00
2022-11-16T01:15:55.648Z,96766.00
2022-11-16T01:16:05.898Z,96768.00
2022-11-16T01:16:15.912Z,96768.00
2022-11-16T01:16:25.903Z,96768.00
2022-11-16T01:16:35.941Z,96770.00
2022-11-16T01:16:45.930Z,96770.00
2022-11-16T01:16:55.955Z,96770.00
2022-11-16T01:17:06.073Z,96768.00
2022-11-16T01:17:16.079Z,96768.00
2022-11-16T01:17:26.196Z,96768.00
2022-11-16T01:17:36.197Z,96772.00
2022-11-16T01:17:46.330Z,96768.00
2022-11-16T01:17:56.333Z,96768.00
2022-11-16T01:18:06.337Z,96770.00
2022-11-16T01:18:16.345Z,96770.00
2022-11-16T01:18:26.345Z,96772.00
2022-11-16T01:18:36.399Z,96773.00
2022-11-16T01:18:46.387Z,96772.00
2022-11-16T01:18:56.390Z,96772.00
2022-11-16T01:19:06.405Z,96773.00
2022-11-16T01:19:16.424Z,96773.00
2022-11-16T01:19:26.801Z,96773.00
2022-11-16T01:19:36.802Z,96775.00
2022-11-16T01:19:46.924Z,96773.00
2022-11-16T01:19:57.184Z,96775.00
2022-11-16T01:20:07.190Z,96775.00
2022-11-16T01:20:17.191Z,96775.00
2022-11-16T01:20:27.570Z,96777.00
2022-11-16T01:20:37.570Z,96777.00
2022-11-16T01:20:47.694Z,96781.00
2022-11-16T01:20:57.952Z,96779.00
2022-11-16T01:21:08.085Z,96783.00
2022-11-16T01:21:18.093Z,96777.00
2022-11-16T01:21:28.346Z,96783.00
2022-11-16T01:21:38.348Z,96777.00
2022-11-16T01:21:48.466Z,96783.00
2022-11-16T01:21:58.734Z,96777.00
2022-11-16T01:22:08.745Z,96787.00
2022-11-16T01:22:18.755Z,96781.00
2022-11-16T01:22:28.752Z,96781.00
2022-11-16T01:22:38.757Z,96783.00
2022-11-16T01:22:48.758Z,96783.00
2022-11-16T01:22:58.760Z,96781.00
2022-11-16T01:23:08.781Z,96785.00
2022-11-16T01:23:18.789Z,96785.00
2022-11-16T01:23:28.793Z,96785.00
2022-11-16T01:23:38.792Z,96787.00
2022-11-16T01:23:48.917Z,96785.00
2022-11-16T01:23:58.916Z,96787.00
2022-11-16T01:24:08.951Z,96787.00
2022-11-16T01:24:18.994Z,96789.00
2022-11-16T01:24:28.987Z,96789.00
2022-11-16T01:24:38.997Z,96791.00
2022-11-16T01:24:49.254Z,96789.00
2022-11-16T01:24:59.253Z,96791.00
2022-11-16T01:25:09.387Z,96791.00
2022-11-16T01:25:19.663Z,96791.00
2022-11-16T01:25:29.666Z,96789.00
2022-11-16T01:25:39.666Z,96791.00
2022-11-16T01:25:50.052Z,96789.00
2022-11-16T01:26:00.044Z,96789.00
2022-11-16T01:26:10.056Z,96789.00
2022-11-16T01:26:20.062Z,96789.00
2022-11-16T01:26:30.069Z,96791.00
2022-11-16T01:26:40.067Z,96791.00
2022-11-16T01:26:50.077Z,96793.00
2022-11-16T01:27:00.091Z,96793.00
2022-11-16T01:27:10.204Z,96793.00
2022-11-16T01:27:20.206Z,96789.00
2022-11-16T01:27:30.467Z,96791.00
2022-11-16T01:27:40.477Z,96793.00
2022-11-16T01:27:50.473Z,96795.00
2022-11-16T01:28:00.468Z,96791.00
2022-11-16T01:28:10.477Z,96791.00
2022-11-16T01:28:20.480Z,96793.00
2022-11-16T01:28:30.786Z,96793.00
2022-11-16T01:28:40.564Z,96793.00
2022-11-16T01:28:50.682Z,96793.00
2022-11-16T01:29:00.682Z,96797.00
2022-11-16T01:29:10.932Z,96797.00
2022-11-16T01:29:20.943Z,96795.00
2022-11-16T01:29:30.941Z,96797.00
2022-11-16T01:29:40.940Z,96797.00
2022-11-16T01:29:51.067Z,96799.00
2022-11-16T01:30:01.094Z,96799.00
2022-11-16T01:30:11.089Z,96799.00
2022-11-16T01:30:21.103Z,96797.00
2022-11-16T01:30:31.129Z,96799.00
2022-11-16T01:30:41.115Z,96799.00
2022-11-16T01:30:51.368Z,96801.00
2022-11-16T01:31:01.388Z,96801.00
2022-11-16T01:31:11.391Z,96799.00
2022-11-16T01:31:21.402Z,96799.00
2022-11-16T01:31:31.413Z,96799.00
2022-11-16T01:31:41.445Z,96801.00
2022-11-16T01:31:51.428Z,96801.00
2022-11-16T01:32:01.439Z,96799.00
2022-11-16T01:32:11.452Z,96803.00
2022-11-16T01:32:21.460Z,96805.00
2022-11-16T01:32:31.843Z,96801.00
2022-11-16T01:32:41.848Z,96801.00
2022-11-16T01:32:51.849Z,96799.00
2022-11-16T01:33:01.861Z,96801.00
2022-11-16T01:33:11.892Z,96801.00
2022-11-16T01:33:21.883Z,96803.00
2022-11-16T01:33:31.890Z,96801.00
2022-11-16T01:33:41.907Z,96801.00
2022-11-16T01:33:51.908Z,96799.00
2022-11-16T01:34:01.919Z,96801.00
2022-11-16T01:34:12.296Z,96799.00
2022-11-16T01:34:22.296Z,96801.00
2022-11-16T01:34:32.415Z,96799.00
2022-11-16T01:34:42.676Z,96799.00
2022-11-16T01:34:52.808Z,96797.00
2022-11-16T01:35:02.818Z,96799.00
2022-11-16T01:35:13.068Z,96797.00
2022-11-16T01:35:23.072Z,96799.00
2022-11-16T01:35:33.198Z,96799.00
2022-11-16T01:35:43.457Z,96799.00
2022-11-16T01:35:53.578Z,96801.00
2022-11-16T01:36:03.624Z,96799.00
2022-11-16T01:36:13.889Z,96801.00
2022-11-16T01:36:23.897Z,96801.00
2022-11-16T01:36:33.890Z,96801.00
2022-11-16T01:36:43.900Z,96803.00
2022-11-16T01:36:53.899Z,96801.00
2022-11-16T01:37:03.897Z,96799.00
2022-11-16T01:37:13.898Z,96799.00
2022-11-16T01:37:23.905Z,96801.00
2022-11-16T01:37:34.025Z,96801.00
2022-11-16T01:37:44.024Z,96801.00
2022-11-16T01:37:54.291Z,96801.00
2022-11-16T01:38:04.298Z,96799.00
2022-11-16T01:38:14.309Z,96799.00
2022-11-16T01:38:29.402Z,96801.00
2022-11-16T01:38:34.679Z,96801.00
2022-11-16T01:38:44.438Z,96799.00
2022-11-16T01:38:54.447Z,96799.00
2022-11-16T01:39:04.461Z,96797.00
2022-11-16T01:39:14.453Z,96801.00
2022-11-16T01:39:24.456Z,96799.00
2022-11-16T01:39:34.456Z,96799.00
2022-11-16T01:39:44.458Z,96797.00
2022-11-16T01:39:54.457Z,96797.00
2022-11-16T01:40:04.460Z,96797.00
2022-11-16T01:40:14.578Z,96795.00
2022-11-16T01:40:24.595Z,96797.00
2022-11-16T01:40:34.600Z,96795.00
2022-11-16T01:40:44.594Z,96795.00
2022-11-16T01:40:54.711Z,96797.00
2022-11-16T01:41:04.849Z,96795.00
2022-11-16T01:41:14.850Z,96797.00
2022-11-16T01:41:24.859Z,96795.00
2022-11-16T01:41:34.876Z,96797.00
2022-11-16T01:41:44.892Z,96797.00
2022-11-16T01:41:54.890Z,96797.00
2022-11-16T01:42:04.906Z,96795.00
2022-11-16T01:42:14.913Z,96797.00
2022-11-16T01:42:24.923Z,96797.00
2022-11-16T01:42:34.933Z,96797.00
2022-11-16T01:42:44.939Z,96797.00
2022-11-16T01:42:54.954Z,96799.00
2022-11-16T01:43:04.962Z,96795.00
2022-11-16T01:43:14.974Z,96795.00
2022-11-16T01:43:24.978Z,96793.00
2022-11-16T01:43:35.097Z,96795.00
2022-11-16T01:43:45.095Z,96795.00
2022-11-16T01:43:55.350Z,96793.00
2022-11-16T01:44:05.358Z,96795.00
2022-11-16T01:44:15.372Z,96795.00
2022-11-16T01:44:25.382Z,96793.00
2022-11-16T01:44:35.388Z,96793.00
2022-11-16T01:44:45.398Z,96793.00
2022-11-16T01:44:55.391Z,96793.00
2022-11-16T01:45:05.396Z,96793.00
2022-11-16T01:45:15.400Z,96793.00
2022-11-16T01:45:25.401Z,96793.00
2022-11-16T01:45:35.417Z,96791.00
2022-11-16T01:45:45.422Z,96793.00
2022-11-16T01:45:55.436Z,96795.00
2022-11-16T01:46:05.443Z,96793.00
2022-11-16T01:46:15.450Z,96791.00
2022-11-16T01:46:25.461Z,96793.00
2022-11-16T01:46:35.480Z,96795.00
2022-11-16T01:46:45.502Z,96793.00
2022-11-16T01:46:55.603Z,96795.00
2022-11-16T01:47:05.605Z,96791.00
2022-11-16T01:47:15.616Z,96791.00
2022-11-16T01:47:25.635Z,96789.00
2022-11-16T01:47:35.770Z,96791.00
2022-11-16T01:47:45.781Z,96787.00
2022-11-16T01:47:56.004Z,96789.00
2022-11-16T01:48:06.074Z,96787.00
2022-11-16T01:48:16.141Z,96787.00
2022-11-16T01:48:26.354Z,96787.00
2022-11-16T01:48:36.802Z,96785.00
2022-11-16T01:48:46.474Z,96783.00
2022-11-16T01:48:56.880Z,96785.00
2022-11-16T01:49:06.884Z,96785.00
2022-11-16T01:49:16.999Z,96783.00
2022-11-16T01:49:27.137Z,96783.00
2022-11-16T01:49:37.137Z,96783.00
2022-11-16T01:49:47.138Z,96783.00
2022-11-16T01:49:57.516Z,96781.00
2022-11-16T01:50:07.521Z,96783.00
2022-11-16T01:50:17.540Z,96781.00
2022-11-16T01:50:27.543Z,96783.00
2022-11-16T01:50:37.555Z,96779.00
2022-11-16T01:50:47.561Z,96779.00
2022-11-16T01:50:57.573Z,96777.00
2022-11-16T01:51:07.580Z,96777.00
2022-11-16T01:51:17.593Z,96777.00
2022-11-16T01:51:27.601Z,96777.00
2022-11-16T01:51:37.979Z,96779.00
2022-11-16T01:51:47.978Z,96779.00
2022-11-16T01:51:57.993Z,96775.00
2022-11-16T01:52:08.001Z,96777.00
2022-11-16T01:52:18.011Z,96777.00
2022-11-16T01:52:28.010Z,96777.00
2022-11-16T01:52:38.012Z,96777.00
2022-11-16T01:52:48.017Z,96777.00
2022-11-16T01:52:58.022Z,96779.00
2022-11-16T01:53:08.021Z,96779.00
2022-11-16T01:53:18.020Z,96777.00
2022-11-16T01:53:28.030Z,96777.00
2022-11-16T01:53:38.034Z,96779.00
2022-11-16T01:53:48.043Z,96779.00
2022-11-16T01:53:58.058Z,96777.00
2022-11-16T01:54:08.061Z,96777.00
2022-11-16T01:54:18.104Z,96779.00
2022-11-16T01:54:28.111Z,96779.00
2022-11-16T01:54:38.116Z,96777.00
2022-11-16T01:54:48.124Z,96779.00
2022-11-16T01:54:58.122Z,96779.00
2022-11-16T01:55:08.131Z,96779.00
2022-11-16T01:55:18.133Z,96779.00
2022-11-16T01:55:28.141Z,96779.00
2022-11-16T01:55:38.155Z,96777.00
2022-11-16T01:55:48.165Z,96779.00
2022-11-16T01:55:58.172Z,96779.00
2022-11-16T01:56:08.165Z,96781.00
2022-11-16T01:56:18.171Z,96781.00
2022-11-16T01:56:28.179Z,96777.00
2022-11-16T01:56:38.180Z,96783.00
2022-11-16T01:56:48.182Z,96783.00
2022-11-16T01:56:58.197Z,96785.00
2022-11-16T01:57:08.204Z,96777.00
2022-11-16T01:57:18.215Z,96783.00
2022-11-16T01:57:28.234Z,96777.00
2022-11-16T01:57:38.233Z,96781.00
2022-11-16T01:57:48.250Z,96781.00
2022-11-16T01:57:58.257Z,96781.00